SAAC/COC METAR and TAF weather

Enter ICAO airport designator
Station Type Date Time Source
SAAC METAR 2019/06/14 22:20 UTC NOAA

SAAC 142220Z 18009KT 9999 TS OVC004 FEW045CB 18/17 Q1014


Station Type Date Time Source
SAAC Decoded METAR 2019/06/14 22:20 UTC NOAA

Concordia Aerodrome, Argentina (SAAC) 31-18S 058-01W 38M
Jun 14, 2019 - 06:20 PM EDT / 2019.06.14 2220 UTC
Wind: from the S (180 degrees) at 10 MPH (9 KT):0
Visibility: greater than 7 mile(s):0
Sky conditions: overcast
Weather: thunder; Cumulonimbus clouds observed
Temperature: 64 F (18 C)
Dew Point: 62 F (17 C)
Relative Humidity: 93%
Pressure (altimeter): 29.94 in. Hg (1014 hPa)
ob: SAAC 142220Z 18009KT 9999 TS OVC004 FEW045CB 18/17 Q1014
cycle: 22

Station Type Date Time Source
SAAC TAF UTC NOAA

Error!

Example: see airport list